Time;durP1;ratioP1;P1;durP2;ratioP2;P2;SDS_P1;SDS_P2;PMS_P1;PMS_P2;Temp;Humidity;BMP_temperature;BMP_pressure;BME280_temperature;BME280_humidity;BME280_pressure;Samples;Min_cycle;Max_cycle;Signal;HPM_P1;HPM_P2
2022/07/08 00:02:25;;;;;;;8.63;2.90;;;13.10;99.90;;;;;;5074712;28;20679;-75
2022/07/08 00:04:52;;;;;;;8.77;3.27;;;13.10;99.90;;;;;;5075039;28;20250;-75
2022/07/08 00:07:20;;;;;;;8.53;2.80;;;12.90;99.90;;;;;;5074863;28;20204;-75
2022/07/08 00:09:47;;;;;;;7.17;3.40;;;12.90;99.90;;;;;;5074633;28;20602;-75
2022/07/08 00:12:13;;;;;;;9.33;3.20;;;12.80;99.90;;;;;;5074673;28;20193;-75
2022/07/08 00:14:40;;;;;;;6.90;3.10;;;12.70;99.90;;;;;;5074661;28;20200;-76
2022/07/08 00:17:07;;;;;;;9.13;3.23;;;12.70;99.90;;;;;;5074382;28;20193;-75
2022/07/08 00:19:33;;;;;;;9.30;3.50;;;12.60;99.90;;;;;;5074603;28;20205;-75
2022/07/08 00:22:00;;;;;;;10.23;3.03;;;12.60;99.90;;;;;;5074635;28;20235;-75
2022/07/08 00:24:28;;;;;;;6.40;2.90;;;12.60;99.90;;;;;;5074388;28;20649;-75
2022/07/08 00:26:55;;;;;;;8.57;3.40;;;12.50;99.90;;;;;;5074401;28;20251;-75
2022/07/08 00:29:21;;;;;;;8.97;3.20;;;12.50;99.90;;;;;;5074344;28;20216;-75
2022/07/08 00:31:48;;;;;;;6.50;3.30;;;12.40;99.90;;;;;;5074248;28;20237;-75
2022/07/08 00:34:14;;;;;;;6.63;3.20;;;12.40;99.90;;;;;;5074175;28;20193;-75
2022/07/08 00:36:41;;;;;;;10.80;3.10;;;12.40;99.90;;;;;;5074267;28;20193;-75
2022/07/08 00:39:08;;;;;;;10.43;3.30;;;12.40;99.90;;;;;;5073891;28;20236;-76
2022/07/08 00:41:36;;;;;;;5.97;3.10;;;12.50;99.90;;;;;;5074138;28;20254;-75
2022/07/08 00:44:03;;;;;;;8.37;3.00;;;12.60;99.90;;;;;;5073877;28;20197;-75
2022/07/08 00:46:29;;;;;;;7.63;3.07;;;12.50;99.90;;;;;;5074199;28;20204;-76
2022/07/08 00:48:56;;;;;;;7.97;3.33;;;12.50;99.90;;;;;;5073964;28;20197;-75
2022/07/08 00:51:24;;;;;;;8.03;3.13;;;12.50;99.90;;;;;;5073717;28;20660;-75
2022/07/08 00:53:53;;;;;;;6.30;3.47;;;12.40;99.90;;;;;;5073792;28;20329;-75
2022/07/08 00:56:21;;;;;;;5.43;3.37;;;12.40;99.90;;;;;;5073779;28;20256;-75
2022/07/08 00:58:50;;;;;;;9.53;3.30;;;12.40;99.90;;;;;;5073496;28;20217;-75
2022/07/08 01:01:16;;;;;;;8.03;3.40;;;12.40;99.90;;;;;;5073895;28;20250;-75
2022/07/08 01:03:45;;;;;;;6.37;3.20;;;12.30;99.90;;;;;;5073693;28;20196;-75
2022/07/08 01:06:11;;;;;;;8.83;3.73;;;12.20;99.90;;;;;;5073637;28;20201;-75
2022/07/08 01:08:39;;;;;;;5.77;3.00;;;12.10;99.90;;;;;;5073439;28;20672;-76
2022/07/08 01:11:07;;;;;;;7.07;3.40;;;12.10;99.90;;;;;;5073440;28;20205;-76
2022/07/08 01:13:34;;;;;;;8.93;3.63;;;12.00;99.90;;;;;;5073570;28;20644;-76
2022/07/08 01:16:02;;;;;;;8.27;3.77;;;11.90;99.90;;;;;;5073769;28;20193;-75
2022/07/08 01:18:31;;;;;;;8.73;3.70;;;11.90;99.90;;;;;;5073476;28;20221;-75
2022/07/08 01:20:59;;;;;;;7.37;3.53;;;11.80;99.90;;;;;;5073479;28;20254;-75
2022/07/08 01:23:26;;;;;;;8.20;3.93;;;11.70;99.90;;;;;;5073279;28;20235;-75
2022/07/08 01:25:55;;;;;;;8.93;3.90;;;11.60;99.90;;;;;;5073235;28;20271;-76
2022/07/08 01:28:22;;;;;;;8.87;4.50;;;11.40;99.90;;;;;;5073375;28;20565;-76
2022/07/08 01:30:48;;;;;;;10.03;4.03;;;11.30;99.90;;;;;;5073398;28;20242;-75
2022/07/08 01:33:15;;;;;;;8.80;3.90;;;11.20;99.90;;;;;;5073072;28;20254;-75
2022/07/08 01:35:42;;;;;;;10.03;3.73;;;11.20;99.90;;;;;;5073242;28;20201;-75
2022/07/08 01:38:09;;;;;;;8.97;3.60;;;11.20;99.90;;;;;;5072859;28;20237;-75
2022/07/08 01:40:36;;;;;;;8.50;3.90;;;11.20;99.90;;;;;;5073060;28;20254;-75
2022/07/08 01:43:06;;;;;;;8.83;3.93;;;11.20;99.90;;;;;;5073264;28;20250;-75
2022/07/08 01:45:32;;;;;;;7.20;3.73;;;11.10;99.90;;;;;;5073130;28;20229;-75
2022/07/08 01:47:59;;;;;;;11.13;3.47;;;11.20;99.90;;;;;;5073088;28;20201;-76
2022/07/08 01:50:26;;;;;;;10.23;3.80;;;11.10;99.90;;;;;;5073056;28;20196;-75
2022/07/08 01:52:52;;;;;;;10.77;3.80;;;11.20;99.90;;;;;;5072850;28;20193;-75
2022/07/08 01:55:21;;;;;;;7.40;3.20;;;11.00;99.90;;;;;;5073173;28;20200;-75
2022/07/08 01:57:47;;;;;;;8.30;4.03;;;11.00;99.90;;;;;;5073042;28;20240;-75
2022/07/08 02:00:14;;;;;;;8.90;3.93;;;11.00;99.90;;;;;;5072812;28;20616;-75
2022/07/08 02:02:41;;;;;;;11.80;4.13;;;11.00;99.90;;;;;;5072698;28;20243;-75
2022/07/08 02:05:09;;;;;;;9.50;4.20;;;10.90;99.90;;;;;;5072586;28;20196;-75
2022/07/08 02:07:36;;;;;;;8.00;3.40;;;10.80;99.90;;;;;;5072658;28;20193;-75
2022/07/08 02:10:03;;;;;;;8.70;3.60;;;10.80;99.90;;;;;;5072672;28;20201;-75
2022/07/08 02:12:30;;;;;;;6.67;3.77;;;10.80;99.90;;;;;;5072984;28;20250;-76
2022/07/08 02:15:01;;;;;;;9.90;4.30;;;10.80;99.90;;;;;;5072856;28;20262;-76
2022/07/08 02:17:29;;;;;;;9.30;4.33;;;10.70;99.90;;;;;;5072738;28;20197;-75
2022/07/08 02:19:57;;;;;;;8.40;4.00;;;10.60;99.90;;;;;;5072501;28;20221;-76
2022/07/08 02:22:24;;;;;;;8.53;4.30;;;10.60;99.90;;;;;;5072904;28;20254;-76
2022/07/08 02:24:51;;;;;;;9.80;3.67;;;10.50;99.90;;;;;;5072699;28;20709;-76
2022/07/08 02:27:18;;;;;;;9.13;3.97;;;10.50;99.90;;;;;;5072759;28;20201;-75
2022/07/08 02:29:46;;;;;;;7.73;3.70;;;10.70;99.90;;;;;;5072616;28;20209;-75
2022/07/08 02:32:13;;;;;;;6.80;3.57;;;10.70;99.90;;;;;;5072543;28;20546;-75
2022/07/08 02:34:39;;;;;;;10.37;3.80;;;10.80;99.90;;;;;;5072381;28;20587;-75
2022/07/08 02:37:06;;;;;;;9.60;4.10;;;10.80;99.90;;;;;;5072684;28;20201;-75
2022/07/08 02:39:33;;;;;;;10.50;4.10;;;10.80;99.90;;;;;;5072216;28;20232;-75
2022/07/08 02:41:59;;;;;;;11.23;4.23;;;10.90;99.90;;;;;;5072578;28;20197;-75
2022/07/08 02:44:26;;;;;;;6.70;3.33;;;10.90;99.90;;;;;;5072516;28;20205;-75
2022/07/08 02:46:54;;;;;;;8.23;3.37;;;10.90;99.90;;;;;;5072414;28;20201;-74
2022/07/08 02:49:21;;;;;;;11.20;3.53;;;10.90;99.90;;;;;;5072298;28;20196;-75
2022/07/08 02:51:47;;;;;;;7.73;3.83;;;10.80;99.90;;;;;;5072484;28;20197;-75
2022/07/08 02:54:14;;;;;;;9.37;4.33;;;10.80;99.90;;;;;;5072334;28;20656;-74
2022/07/08 02:56:41;;;;;;;7.67;3.73;;;10.80;99.90;;;;;;5072370;28;20201;-74
2022/07/08 02:59:07;;;;;;;6.87;3.77;;;10.80;99.90;;;;;;5072248;28;20262;-75
2022/07/08 03:01:34;;;;;;;10.70;4.07;;;10.80;99.90;;;;;;5072319;28;20238;-75
2022/07/08 03:04:02;;;;;;;9.77;3.77;;;10.70;99.90;;;;;;5072219;28;20650;-75
2022/07/08 03:06:29;;;;;;;9.47;4.53;;;10.60;99.90;;;;;;5072355;28;20252;-74
2022/07/08 03:08:55;;;;;;;10.00;4.70;;;10.40;99.90;;;;;;5072150;28;20717;-75
2022/07/08 03:11:22;;;;;;;7.23;3.90;;;10.20;99.90;;;;;;5072338;28;20243;-75
2022/07/08 03:13:48;;;;;;;11.33;4.47;;;10.00;99.90;;;;;;5072227;28;20201;-75
2022/07/08 03:16:15;;;;;;;10.33;5.33;;;9.90;99.90;;;;;;5073969;28;20668;-75
2022/07/08 03:18:42;;;;;;;9.87;4.87;;;9.80;99.90;;;;;;5075560;28;20769;-75
2022/07/08 03:21:10;;;;;;;8.37;4.90;;;9.70;99.90;;;;;;5075777;28;20197;-75
2022/07/08 03:23:36;;;;;;;11.37;4.97;;;9.80;99.90;;;;;;5075699;28;20266;-76
2022/07/08 03:26:03;;;;;;;7.80;5.10;;;9.70;99.90;;;;;;5075518;28;20648;-75
2022/07/08 03:28:30;;;;;;;12.37;5.67;;;9.60;99.90;;;;;;5075490;28;20201;-76
2022/07/08 03:30:57;;;;;;;11.77;5.20;;;9.60;99.90;;;;;;5075403;28;20652;-75
2022/07/08 03:33:24;;;;;;;12.53;5.30;;;9.70;99.90;;;;;;5075593;28;20247;-75
2022/07/08 03:35:50;;;;;;;9.73;5.60;;;9.80;99.90;;;;;;5075506;28;20193;-75
2022/07/08 03:38:18;;;;;;;12.37;5.70;;;9.80;99.90;;;;;;5075066;28;20233;-76
2022/07/08 03:43:29;;;;;;;14.23;6.00;;;9.80;99.90;;;;;;5075282;28;20569;-76
2022/07/08 03:45:56;;;;;;;11.93;6.07;;;9.80;99.90;;;;;;5075179;28;20661;-77
2022/07/08 03:48:23;;;;;;;14.87;6.30;;;9.70;99.90;;;;;;5075158;28;20207;-76
2022/07/08 03:50:49;;;;;;;13.47;6.47;;;9.70;99.90;;;;;;5074125;28;20263;-76
2022/07/08 03:53:17;;;;;;;13.30;6.30;;;9.70;99.90;;;;;;5075191;28;20274;-76
2022/07/08 03:55:44;;;;;;;11.17;5.80;;;9.60;99.90;;;;;;5074991;28;20243;-76
2022/07/08 03:58:11;;;;;;;11.63;5.57;;;9.70;99.90;;;;;;5075117;28;20266;-76
2022/07/08 04:00:38;;;;;;;17.93;5.97;;;9.70;99.90;;;;;;5074995;28;20197;-77
2022/07/08 04:03:04;;;;;;;11.20;5.73;;;9.80;99.90;;;;;;5074950;28;20274;-76
2022/07/08 04:05:31;;;;;;;11.43;5.77;;;9.80;99.90;;;;;;5074903;28;20255;-77
2022/07/08 04:07:57;;;;;;;11.33;5.93;;;9.90;99.90;;;;;;5075154;28;20247;-76
2022/07/08 04:10:26;;;;;;;10.57;5.73;;;9.90;99.90;;;;;;5074623;28;20255;-77
2022/07/08 04:12:52;;;;;;;9.93;4.90;;;10.00;99.90;;;;;;5075748;28;20200;-76
2022/07/08 04:15:19;;;;;;;12.60;5.40;;;10.00;99.90;;;;;;5075765;28;20201;-77
2022/07/08 04:17:46;;;;;;;9.33;5.03;;;10.00;99.90;;;;;;5074741;28;20205;-77
2022/07/08 04:20:12;;;;;;;10.20;4.77;;;10.00;99.90;;;;;;5074359;28;20695;-76
2022/07/08 04:22:39;;;;;;;13.10;4.80;;;10.00;99.90;;;;;;5074385;28;20246;-77
2022/07/08 04:25:07;;;;;;;10.53;4.83;;;10.00;99.90;;;;;;5074310;28;20353;-77
2022/07/08 04:27:35;;;;;;;10.10;4.77;;;10.00;99.90;;;;;;5073914;28;20731;-76
2022/07/08 04:30:02;;;;;;;8.33;4.97;;;10.20;99.90;;;;;;5074353;28;20205;-77
2022/07/08 04:32:29;;;;;;;15.40;5.13;;;10.20;99.90;;;;;;5074300;28;20605;-78
2022/07/08 04:34:58;;;;;;;7.27;3.97;;;10.30;99.90;;;;;;5074381;28;20197;-77
2022/07/08 04:37:25;;;;;;;8.70;4.70;;;10.50;99.90;;;;;;5074168;28;20199;-76
2022/07/08 04:39:52;;;;;;;8.00;4.27;;;10.70;99.90;;;;;;5074056;28;20237;-77
2022/07/08 04:42:18;;;;;;;8.03;4.20;;;10.80;99.90;;;;;;5074718;28;20197;-77
2022/07/08 04:44:46;;;;;;;8.03;4.17;;;10.90;99.90;;;;;;5074075;28;20201;-77
2022/07/08 04:47:13;;;;;;;8.63;3.83;;;10.90;99.90;;;;;;5074102;28;20196;-77
2022/07/08 04:49:40;;;;;;;8.23;4.00;;;11.00;99.90;;;;;;5073764;28;20197;-77
2022/07/08 04:52:07;;;;;;;9.07;4.33;;;10.90;99.90;;;;;;5073866;28;20626;-77
2022/07/08 04:54:34;;;;;;;7.07;3.90;;;10.90;99.90;;;;;;5073976;28;20203;-77
2022/07/08 04:57:00;;;;;;;12.37;3.87;;;10.90;99.90;;;;;;5073701;28;20203;-77
2022/07/08 04:59:27;;;;;;;7.47;3.73;;;10.90;99.90;;;;;;5073662;28;20627;-77
2022/07/08 05:01:55;;;;;;;6.57;3.57;;;11.00;99.90;;;;;;5073709;28;20644;-77
2022/07/08 05:04:22;;;;;;;7.63;3.57;;;11.10;99.90;;;;;;5073585;28;20204;-77
2022/07/08 05:06:48;;;;;;;8.27;3.67;;;11.20;99.90;;;;;;5073754;28;20197;-76
2022/07/08 05:09:15;;;;;;;9.50;3.97;;;11.30;99.90;;;;;;5073722;28;20259;-77
2022/07/08 05:11:42;;;;;;;10.23;3.70;;;11.50;99.90;;;;;;5073618;28;20204;-77
2022/07/08 05:14:13;;;;;;;6.17;3.13;;;11.70;99.90;;;;;;5073432;28;20655;-76
2022/07/08 05:16:39;;;;;;;11.80;3.57;;;11.90;99.90;;;;;;5073460;28;20201;-77
2022/07/08 05:19:07;;;;;;;7.67;4.30;;;12.00;99.90;;;;;;5073252;28;20227;-77
2022/07/08 05:21:36;;;;;;;8.80;3.30;;;12.10;99.90;;;;;;5073671;28;20563;-76
2022/07/08 05:24:03;;;;;;;8.73;3.67;;;12.20;99.90;;;;;;5073408;28;20193;-76
2022/07/08 05:26:29;;;;;;;6.20;3.20;;;12.40;99.90;;;;;;5073246;28;20197;-78
2022/07/08 05:28:56;;;;;;;8.57;3.83;;;12.40;99.90;;;;;;5073252;28;20201;-76
2022/07/08 05:31:23;;;;;;;8.03;3.37;;;12.40;99.90;;;;;;5073117;28;20709;-78
2022/07/08 05:33:49;;;;;;;7.07;3.20;;;12.50;99.90;;;;;;5072847;28;20196;-78
2022/07/08 05:36:17;;;;;;;5.53;3.80;;;12.60;99.90;;;;;;5073281;28;20660;-78
2022/07/08 05:38:44;;;;;;;6.37;3.40;;;12.70;99.90;;;;;;5072344;28;20233;-79
2022/07/08 05:41:10;;;;;;;6.73;3.10;;;12.80;99.90;;;;;;5073025;28;20197;-78
2022/07/08 05:43:37;;;;;;;9.37;3.70;;;12.80;99.90;;;;;;5072963;28;20209;-78
2022/07/08 05:46:04;;;;;;;5.20;2.77;;;12.90;99.90;;;;;;5072743;28;20219;-79
2022/07/08 05:48:31;;;;;;;9.20;3.13;;;12.80;99.90;;;;;;5072803;28;20676;-78
2022/07/08 05:50:57;;;;;;;8.47;3.60;;;13.00;99.90;;;;;;5072901;28;20238;-77
2022/07/08 05:53:25;;;;;;;5.90;2.87;;;13.20;99.90;;;;;;5073078;28;20201;-78
2022/07/08 05:55:52;;;;;;;11.40;2.97;;;13.30;99.90;;;;;;5072824;28;20644;-78
2022/07/08 05:58:19;;;;;;;8.70;3.23;;;13.50;99.90;;;;;;5072711;28;20714;-78
2022/07/08 06:00:45;;;;;;;8.40;3.00;;;13.50;99.90;;;;;;5072612;28;20225;-78
2022/07/08 06:03:12;;;;;;;7.07;2.70;;;13.60;99.90;;;;;;5072965;28;20254;-78
2022/07/08 06:05:39;;;;;;;6.43;2.40;;;13.50;99.90;;;;;;5072940;28;20201;-78
2022/07/08 06:08:06;;;;;;;5.13;2.57;;;13.60;99.90;;;;;;5072857;28;20242;-78
2022/07/08 06:10:34;;;;;;;9.03;2.60;;;13.60;99.90;;;;;;5072849;28;20204;-78
2022/07/08 06:13:01;;;;;;;9.23;2.93;;;13.80;99.90;;;;;;5072967;28;20635;-78
2022/07/08 06:15:28;;;;;;;4.30;2.33;;;13.80;99.90;;;;;;5072642;28;20197;-78
2022/07/08 06:17:55;;;;;;;6.37;2.53;;;13.80;99.90;;;;;;5072585;28;20648;-78
2022/07/08 06:20:21;;;;;;;6.20;2.67;;;13.90;99.90;;;;;;5072643;28;20715;-78
2022/07/08 06:22:49;;;;;;;7.83;2.43;;;14.00;99.90;;;;;;5073583;28;20258;-78
2022/07/08 06:25:16;;;;;;;7.87;2.93;;;14.10;99.90;;;;;;5073379;28;20592;-78
2022/07/08 06:27:44;;;;;;;5.00;2.70;;;14.40;99.90;;;;;;5072749;28;20193;-78
2022/07/08 06:30:11;;;;;;;5.37;2.20;;;14.40;99.90;;;;;;5072431;28;20226;-78
2022/07/08 06:32:38;;;;;;;8.63;2.60;;;14.50;99.90;;;;;;5072621;28;20200;-78
2022/07/08 06:35:05;;;;;;;5.07;2.60;;;14.60;99.90;;;;;;5072421;28;20663;-78
2022/07/08 06:37:32;;;;;;;10.27;2.57;;;14.90;99.90;;;;;;5072213;28;20653;-78
2022/07/08 06:39:59;;;;;;;6.67;2.63;;;14.60;99.90;;;;;;5072141;28;20228;-78
2022/07/08 06:42:26;;;;;;;7.07;2.93;;;14.50;99.90;;;;;;5072217;28;20287;-77
2022/07/08 06:44:54;;;;;;;6.37;2.50;;;14.40;99.90;;;;;;5072478;28;20296;-78
2022/07/08 06:47:22;;;;;;;6.63;2.27;;;14.50;99.90;;;;;;5072429;28;20274;-78
2022/07/08 06:49:49;;;;;;;7.90;2.50;;;14.50;99.90;;;;;;5073811;28;20223;-78
2022/07/08 06:52:16;;;;;;;8.60;2.47;;;14.70;99.90;;;;;;5076240;28;20545;-78
2022/07/08 06:54:42;;;;;;;13.13;2.83;;;14.80;99.90;;;;;;5076148;28;20330;-78
2022/07/08 06:57:09;;;;;;;4.53;2.40;;;15.10;99.90;;;;;;5075926;28;20197;-77
2022/07/08 06:59:36;;;;;;;5.03;2.37;;;15.20;99.90;;;;;;5075982;28;20229;-78
2022/07/08 07:02:04;;;;;;;8.37;2.57;;;15.10;99.90;;;;;;5075944;28;20726;-78
2022/07/08 07:04:31;;;;;;;8.43;2.27;;;15.30;99.90;;;;;;5075982;28;20193;-78
2022/07/08 07:06:57;;;;;;;7.40;2.50;;;15.30;99.90;;;;;;5075914;28;20247;-78
2022/07/08 07:09:24;;;;;;;6.97;2.30;;;15.50;99.90;;;;;;5075716;28;20205;-76
2022/07/08 07:11:51;;;;;;;5.80;2.50;;;15.60;99.90;;;;;;5075666;28;20651;-78
2022/07/08 07:14:17;;;;;;;3.87;2.03;;;15.80;99.90;;;;;;5075672;28;20197;-77
2022/07/08 07:16:44;;;;;;;5.67;2.10;;;15.70;99.90;;;;;;5075666;28;20703;-78
2022/07/08 07:19:12;;;;;;;7.88;2.55;;;15.80;99.90;;;;;;5075535;28;20648;-78
2022/07/08 07:21:39;;;;;;;6.70;2.20;;;15.80;99.90;;;;;;5075571;28;20250;-78
2022/07/08 07:24:06;;;;;;;5.73;2.20;;;15.70;99.90;;;;;;5075429;28;20193;-78
2022/07/08 07:26:33;;;;;;;7.28;2.50;;;15.90;99.90;;;;;;5075794;28;20201;-78
2022/07/08 07:29:00;;;;;;;4.65;1.83;;;16.30;99.90;;;;;;5075580;28;20197;-78
2022/07/08 07:31:26;;;;;;;6.13;2.17;;;16.20;99.90;;;;;;5075548;28;20239;-78
2022/07/08 07:33:53;;;;;;;3.53;2.20;;;16.40;99.90;;;;;;5075373;28;20205;-78
2022/07/08 07:36:21;;;;;;;4.85;2.22;;;16.40;99.90;;;;;;5075321;28;20197;-78
2022/07/08 07:38:47;;;;;;;4.93;1.80;;;16.70;99.90;;;;;;5075059;28;20229;-77
2022/07/08 07:41:14;;;;;;;3.40;1.95;;;16.60;99.90;;;;;;5075276;28;20232;-78
2022/07/08 07:43:41;;;;;;;5.97;1.83;;;16.60;99.90;;;;;;5075068;28;20541;-77
2022/07/08 07:46:08;;;;;;;4.70;2.08;;;16.30;99.90;;;;;;5075343;28;20201;-78
2022/07/08 07:48:35;;;;;;;5.00;2.10;;;16.40;99.90;;;;;;5075145;28;20204;-78
2022/07/08 07:51:02;;;;;;;8.15;2.20;;;16.40;99.90;;;;;;5075037;28;20197;-78
2022/07/08 07:53:30;;;;;;;5.43;2.15;;;16.60;99.90;;;;;;5074996;28;20208;-78
2022/07/08 07:55:57;;;;;;;4.72;2.13;;;16.70;99.90;;;;;;5074921;28;20714;-79
2022/07/08 07:58:24;;;;;;;6.20;2.28;;;16.40;99.90;;;;;;5075069;28;20223;-78
2022/07/08 08:00:51;;;;;;;6.13;2.58;;;16.50;99.90;;;;;;5074174;28;20232;-78
2022/07/08 08:03:18;;;;;;;6.68;2.30;;;16.70;99.90;;;;;;5074735;28;20197;-77
2022/07/08 08:05:44;;;;;;;7.22;2.78;;;17.10;99.90;;;;;;5074810;28;20193;-78
2022/07/08 08:08:12;;;;;;;5.32;2.05;;;17.00;99.90;;;;;;5074940;28;20243;-77
2022/07/08 08:10:40;;;;;;;3.55;1.88;;;16.90;99.90;;;;;;5074590;28;20231;-76
2022/07/08 08:13:07;;;;;;;3.13;1.98;;;16.90;99.90;;;;;;5074705;28;20239;-77
2022/07/08 08:15:33;;;;;;;4.97;2.10;;;17.50;99.90;;;;;;5074728;28;20255;-77
2022/07/08 08:18:00;;;;;;;8.55;2.25;;;17.90;99.90;;;;;;5074542;28;20197;-77
2022/07/08 08:20:29;;;;;;;3.35;1.80;;;17.80;99.90;;;;;;5074256;28;20286;-77
2022/07/08 08:22:56;;;;;;;7.95;2.40;;;17.90;99.90;;;;;;5074034;28;20672;-77
2022/07/08 08:25:23;;;;;;;4.18;2.03;;;18.20;99.90;;;;;;5074613;28;20193;-77
2022/07/08 08:27:51;;;;;;;3.67;1.80;;;18.00;99.90;;;;;;5074454;28;20197;-77
2022/07/08 08:30:18;;;;;;;7.07;1.90;;;18.20;99.90;;;;;;5074292;28;20205;-77
2022/07/08 08:32:45;;;;;;;3.60;1.58;;;18.00;99.90;;;;;;5074049;28;20721;-78
2022/07/08 08:35:12;;;;;;;6.30;2.00;;;17.00;99.90;;;;;;5074297;28;20197;-77
2022/07/08 08:37:39;;;;;;;4.55;1.70;;;17.40;99.90;;;;;;5074103;28;20201;-76
2022/07/08 08:40:08;;;;;;;3.67;1.90;;;17.60;99.90;;;;;;5074124;28;20274;-77
2022/07/08 08:42:35;;;;;;;4.63;1.75;;;17.90;99.90;;;;;;5074028;28;20208;-77
2022/07/08 08:45:04;;;;;;;4.93;1.98;;;17.50;99.90;;;;;;5073862;28;20632;-77
2022/07/08 08:47:32;;;;;;;5.22;1.90;;;17.80;99.90;;;;;;5073813;28;20239;-77
2022/07/08 08:50:53;;;;;;;3.65;1.80;;;18.00;99.90;;;;;;5074027;28;20266;-77
2022/07/08 08:52:49;;;;;;;2.67;1.73;;;18.20;99.90;;;;;;5073692;28;20200;-77
2022/07/08 08:55:24;;;;;;;3.80;1.70;;;18.60;99.90;;;;;;5073612;28;20300;-77
2022/07/08 08:57:51;;;;;;;5.78;2.03;;;18.80;99.90;;;;;;5074290;28;20196;-77
2022/07/08 09:00:20;;;;;;;3.38;1.88;;;18.60;99.90;;;;;;5073690;28;20231;-77
2022/07/08 09:02:46;;;;;;;4.57;1.70;;;18.50;99.90;;;;;;5073877;28;20201;-76
2022/07/08 09:05:14;;;;;;;3.20;1.70;;;19.20;99.90;;;;;;5073758;28;20193;-79
2022/07/08 09:07:41;;;;;;;4.32;1.75;;;19.20;98.00;;;;;;5073589;28;20201;-79
2022/07/08 09:10:08;;;;;;;2.55;1.63;;;19.50;96.60;;;;;;5073577;28;20254;-78
2022/07/08 09:12:35;;;;;;;2.67;1.50;;;19.10;93.90;;;;;;5073352;28;20208;-78
2022/07/08 09:15:02;;;;;;;1.88;1.20;;;19.80;94.70;;;;;;5073518;28;20254;-78
2022/07/08 09:17:30;;;;;;;5.68;1.63;;;20.00;92.80;;;;;;5073452;28;20212;-77
2022/07/08 09:19:57;;;;;;;1.98;1.40;;;20.70;90.60;;;;;;5073281;28;20201;-77
2022/07/08 09:22:24;;;;;;;4.07;1.58;;;20.40;87.70;;;;;;5073268;28;20201;-77
2022/07/08 09:24:51;;;;;;;3.00;1.42;;;19.60;87.20;;;;;;5073180;28;20622;-77
2022/07/08 09:27:17;;;;;;;4.30;1.42;;;19.20;90.80;;;;;;5073385;28;20296;-77
2022/07/08 09:29:57;;;;;;;3.75;1.60;;;18.80;91.90;;;;;;5073385;28;20227;-77
2022/07/08 09:32:25;;;;;;;3.03;1.45;;;19.30;92.10;;;;;;5073281;28;20207;-77
2022/07/08 09:34:53;;;;;;;2.97;1.40;;;19.60;88.80;;;;;;5072989;28;20292;-77
2022/07/08 09:37:21;;;;;;;2.75;1.30;;;19.90;85.20;;;;;;5073021;28;20247;-77
2022/07/08 09:39:48;;;;;;;3.45;1.73;;;20.30;84.70;;;;;;5072808;28;20648;-77
2022/07/08 09:42:16;;;;;;;4.30;1.40;;;20.30;83.10;;;;;;5072879;28;20236;-77
2022/07/08 09:44:50;;;;;;;2.35;1.55;;;20.50;80.80;;;;;;5072902;28;20254;-77
2022/07/08 09:47:16;;;;;;;5.68;1.92;;;20.20;84.60;;;;;;5072810;28;20652;-77
2022/07/08 09:49:45;;;;;;;2.95;1.60;;;20.30;81.00;;;;;;5072852;28;20196;-77
2022/07/08 09:52:20;;;;;;;3.20;1.38;;;20.20;82.10;;;;;;5072873;28;20201;-77
2022/07/08 09:54:59;;;;;;;3.33;1.77;;;19.60;84.20;;;;;;5072800;28;20196;-77
2022/07/08 09:57:26;;;;;;;3.85;1.90;;;19.90;81.70;;;;;;5073034;28;20602;-77
2022/07/08 09:59:54;;;;;;;5.22;1.75;;;19.30;84.60;;;;;;5072811;28;20607;-77
2022/07/08 10:02:21;;;;;;;4.43;1.58;;;19.30;85.70;;;;;;5072774;28;20228;-78
2022/07/08 10:04:49;;;;;;;3.17;1.35;;;19.80;85.50;;;;;;5072724;28;20205;-78
2022/07/08 10:07:17;;;;;;;2.33;1.40;;;19.70;81.90;;;;;;5072718;28;20193;-78
2022/07/08 10:09:44;;;;;;;2.85;1.52;;;19.70;81.10;;;;;;5072564;28;20714;-78
2022/07/08 10:12:13;;;;;;;4.55;1.67;;;20.00;80.80;;;;;;5072692;28;20197;-78
2022/07/08 10:14:41;;;;;;;3.58;1.55;;;20.30;79.40;;;;;;5072551;28;20258;-77
2022/07/08 10:17:11;;;;;;;4.88;1.75;;;20.60;79.80;;;;;;5072497;28;20204;-77
2022/07/08 10:19:39;;;;;;;3.65;1.60;;;20.20;78.00;;;;;;5072576;28;20197;-77
2022/07/08 10:22:09;;;;;;;2.90;1.58;;;20.20;78.40;;;;;;5072748;28;20224;-77
2022/07/08 10:24:42;;;;;;;3.10;1.50;;;20.10;79.20;;;;;;5073750;28;20223;-77
2022/07/08 10:27:11;;;;;;;2.58;1.30;;;20.80;78.90;;;;;;5076606;28;20249;-77
2022/07/08 10:29:39;;;;;;;2.25;1.40;;;20.90;76.50;;;;;;5076468;28;20637;-78
2022/07/08 10:32:22;;;;;;;4.07;1.77;;;21.60;75.20;;;;;;5076523;28;20247;-76
2022/07/08 10:35:08;;;;;;;3.45;1.55;;;22.00;70.50;;;;;;5076626;28;20193;-78
2022/07/08 10:37:47;;;;;;;3.15;1.60;;;22.30;70.60;;;;;;5076402;28;20197;-75
2022/07/08 10:40:48;;;;;;;3.25;1.65;;;21.50;70.40;;;;;;5076227;28;20225;-78
2022/07/08 10:43:22;;;;;;;3.88;1.40;;;21.10;69.70;;;;;;5076531;28;20192;-78
2022/07/08 10:46:03;;;;;;;3.85;1.60;;;21.30;71.20;;;;;;5076238;28;20613;-78
2022/07/08 10:48:30;;;;;;;2.42;1.30;;;21.30;70.10;;;;;;5076082;28;20261;-78
2022/07/08 10:50:57;;;;;;;5.03;1.70;;;21.80;69.60;;;;;;5076128;28;20666;-78
2022/07/08 10:53:23;;;;;;;3.38;1.98;;;22.80;67.90;;;;;;5076218;28;20197;-78
2022/07/08 10:55:53;;;;;;;3.85;1.60;;;22.50;63.90;;;;;;5076105;28;20258;-78
2022/07/08 10:58:19;;;;;;;2.75;1.70;;;22.50;66.20;;;;;;5075944;28;20197;-78
2022/07/08 11:01:19;;;;;;;3.70;1.88;;;22.60;64.80;;;;;;5075803;28;20217;-78
2022/07/08 11:03:47;;;;;;;4.32;1.45;;;22.40;62.60;;;;;;5075915;28;20197;-78
2022/07/08 11:06:34;;;;;;;4.90;1.52;;;22.60;64.20;;;;;;5075750;28;20622;-78
2022/07/08 11:09:02;;;;;;;3.58;1.33;;;23.70;60.60;;;;;;5075778;28;20246;-78
2022/07/08 11:11:30;;;;;;;3.70;1.83;;;23.70;57.60;;;;;;5075818;28;20207;-77
2022/07/08 11:13:59;;;;;;;2.78;1.40;;;22.70;58.70;;;;;;5075898;28;20193;-78
2022/07/08 11:16:32;;;;;;;3.45;1.73;;;24.20;57.20;;;;;;5075833;28;20196;-78
2022/07/08 11:18:58;;;;;;;2.58;1.40;;;25.50;54.00;;;;;;5075827;28;20197;-77
2022/07/08 11:21:25;;;;;;;2.47;1.17;;;25.10;50.20;;;;;;5075571;28;20278;-78
2022/07/08 11:23:53;;;;;;;2.30;1.40;;;25.60;49.40;;;;;;5075648;28;20204;-77
2022/07/08 11:26:20;;;;;;;3.22;1.60;;;26.60;48.50;;;;;;5075731;28;20207;-78
2022/07/08 11:28:48;;;;;;;3.17;1.23;;;28.20;44.40;;;;;;5075544;28;20197;-78
2022/07/08 11:31:20;;;;;;;2.30;1.45;;;27.30;40.80;;;;;;5075588;28;20205;-76
2022/07/08 11:33:46;;;;;;;3.95;1.70;;;25.20;43.20;;;;;;5075502;28;20193;-76
2022/07/08 11:36:15;;;;;;;3.28;1.40;;;23.70;45.30;;;;;;5074138;28;20197;-77
2022/07/08 11:38:42;;;;;;;5.03;2.00;;;23.30;48.30;;;;;;5075501;28;20279;-77
2022/07/08 11:41:08;;;;;;;2.42;1.50;;;23.10;48.40;;;;;;5075498;28;20220;-77
2022/07/08 11:43:35;;;;;;;2.53;1.40;;;23.10;47.60;;;;;;5075479;28;20726;-78
2022/07/08 11:46:03;;;;;;;3.17;1.20;;;24.50;47.80;;;;;;5075244;28;20193;-77
2022/07/08 11:48:37;;;;;;;4.00;1.75;;;24.30;46.30;;;;;;5075014;28;20251;-77
2022/07/08 11:51:03;;;;;;;2.67;1.48;;;26.60;44.40;;;;;;5076975;28;20292;-77
2022/07/08 11:53:31;;;;;;;1.75;1.30;;;25.60;42.30;;;;;;5075349;28;20274;-77
2022/07/08 11:55:58;;;;;;;3.53;1.50;;;25.50;43.60;;;;;;5075101;28;20201;-77
2022/07/08 11:58:25;;;;;;;4.85;1.55;;;24.80;43.20;;;;;;5075120;28;20262;-77
2022/07/08 12:00:52;;;;;;;4.03;1.40;;;25.50;42.90;;;;;;5074776;28;20265;-77
2022/07/08 12:03:20;;;;;;;3.20;1.45;;;25.30;41.90;;;;;;5074845;28;20649;-77
2022/07/08 12:05:47;;;;;;;2.95;1.40;;;24.60;44.10;;;;;;5075097;28;20197;-76
2022/07/08 12:08:14;;;;;;;2.83;1.30;;;24.60;43.70;;;;;;5074875;28;20201;-77
2022/07/08 12:10:41;;;;;;;2.25;1.35;;;23.90;44.80;;;;;;5074771;28;20194;-76
2022/07/08 12:13:08;;;;;;;2.05;1.20;;;25.80;42.70;;;;;;5074701;28;20207;-76
2022/07/08 12:15:35;;;;;;;2.35;1.30;;;26.70;41.10;;;;;;5074607;28;20599;-76
2022/07/08 12:18:03;;;;;;;2.55;1.20;;;28.00;40.20;;;;;;5074557;28;20197;-77
2022/07/08 12:20:35;;;;;;;2.15;1.17;;;29.60;37.60;;;;;;5074488;28;20607;-78
2022/07/08 12:23:02;;;;;;;2.45;1.25;;;30.70;34.70;;;;;;5074528;28;20223;-76
2022/07/08 12:25:45;;;;;;;1.90;1.00;;;31.60;31.40;;;;;;5074341;28;20269;-76
2022/07/08 12:28:11;;;;;;;1.90;1.15;;;30.30;30.00;;;;;;5074355;28;20200;-78
2022/07/08 12:30:39;;;;;;;4.25;1.70;;;30.20;30.10;;;;;;5074607;28;20204;-78
2022/07/08 12:33:06;;;;;;;4.05;1.42;;;30.60;29.30;;;;;;5074333;28;20197;-76
2022/07/08 12:35:34;;;;;;;3.15;1.30;;;29.30;29.50;;;;;;5074486;28;20250;-76
2022/07/08 12:38:05;;;;;;;1.98;1.20;;;29.90;28.90;;;;;;5073966;28;20236;-77
2022/07/08 12:40:39;;;;;;;1.95;1.40;;;28.80;29.50;;;;;;5073986;28;20627;-76
2022/07/08 12:43:07;;;;;;;2.55;1.30;;;27.00;30.70;;;;;;5073845;28;20561;-76
2022/07/08 12:45:34;;;;;;;3.05;1.40;;;27.50;31.50;;;;;;5074125;28;20197;-76
2022/07/08 12:48:02;;;;;;;2.75;1.20;;;27.50;31.10;;;;;;5073708;28;20659;-77
2022/07/08 12:50:31;;;;;;;2.47;1.35;;;27.60;31.40;;;;;;5073931;28;20555;-76
2022/07/08 12:53:00;;;;;;;1.55;1.10;;;27.30;32.00;;;;;;5073736;28;20675;-77